Time;durP1;ratioP1;P1;durP2;ratioP2;P2;SDS_P1;SDS_P2;PMS_P1;PMS_P2;Temp;Humidity;BMP_temperature;BMP_pressure;BME280_temperature;BME280_humidity;BME280_pressure;Samples;Min_cycle;Max_cycle;Signal;HPM_P1;HPM_P2
2021/08/14 00:00:39;;;;;;;23.67;8.38;;;13.70;99.90;;;;;;4213408;28;20468;-79
2021/08/14 00:02:40;;;;;;;24.00;9.02;;;13.60;99.90;;;;;;4206012;28;20032;-80
2021/08/14 00:04:41;;;;;;;19.05;7.70;;;13.60;99.90;;;;;;4194467;28;20045;-80
2021/08/14 00:06:41;;;;;;;26.88;8.93;;;13.70;99.90;;;;;;4210768;28;20094;-79
2021/08/14 00:08:44;;;;;;;17.40;9.10;;;13.60;99.90;;;;;;4213000;28;20024;-79
2021/08/14 00:10:45;;;;;;;;;;;13.70;99.90;;;;;;4211585;28;20202;-79
2021/08/14 00:12:45;;;;;;;17.52;8.68;;;13.60;99.90;;;;;;4213613;28;19919;-79
2021/08/14 00:14:46;;;;;;;20.00;8.50;;;13.70;99.90;;;;;;4191887;28;20075;-80
2021/08/14 00:16:47;;;;;;;20.75;9.00;;;13.60;99.90;;;;;;4213566;28;20063;-80
2021/08/14 00:18:47;;;;;;;22.80;8.63;;;13.70;99.90;;;;;;4196742;28;20029;-79
2021/08/14 00:20:48;;;;;;;17.55;8.55;;;13.60;99.90;;;;;;4194167;28;20032;-80
2021/08/14 00:22:49;;;;;;;26.40;10.13;;;13.70;99.90;;;;;;4212567;28;20040;-78
2021/08/14 00:24:49;;;;;;;19.05;8.55;;;13.70;99.90;;;;;;4196046;28;20028;-80
2021/08/14 00:26:51;;;;;;;30.02;9.35;;;13.80;99.90;;;;;;4214326;28;20040;-80
2021/08/14 00:28:52;;;;;;;27.77;10.35;;;13.90;99.90;;;;;;4213013;28;20032;-80
2021/08/14 00:30:53;;;;;;;29.05;11.23;;;14.00;99.90;;;;;;4206916;28;20514;-78
2021/08/14 00:32:53;;;;;;;26.70;10.93;;;14.10;99.90;;;;;;4195573;28;20103;-80
2021/08/14 00:34:54;;;;;;;29.65;9.20;;;14.20;99.90;;;;;;4208791;28;20040;-80
2021/08/14 00:36:55;;;;;;;21.63;10.13;;;14.20;99.90;;;;;;4212388;28;20032;-79
2021/08/14 00:38:56;;;;;;;28.45;10.70;;;14.30;99.90;;;;;;4194908;28;20047;-79
2021/08/14 00:40:57;;;;;;;24.30;10.50;;;14.30;99.90;;;;;;4195988;28;20460;-80
2021/08/14 00:42:58;;;;;;;26.55;10.18;;;14.40;99.90;;;;;;4212861;28;20166;-79
2021/08/14 00:44:58;;;;;;;31.00;10.63;;;14.40;99.90;;;;;;4214239;28;20043;-80
2021/08/14 00:47:02;;;;;;;35.80;12.93;;;14.50;99.90;;;;;;4192802;28;20085;-81
2021/08/14 00:49:03;;;;;;;27.15;10.10;;;14.60;99.90;;;;;;4213611;28;20107;-78
2021/08/14 00:51:07;;;;;;;26.65;11.15;;;14.60;99.90;;;;;;4196857;28;20051;-81
2021/08/14 00:53:07;;;;;;;22.30;10.90;;;14.60;99.90;;;;;;4214736;28;20415;-80
2021/08/14 00:55:08;;;;;;;19.80;10.20;;;14.70;99.90;;;;;;4213408;28;20036;-79
2021/08/14 00:57:09;;;;;;;24.50;10.93;;;14.70;99.90;;;;;;4210982;28;20032;-79
2021/08/14 00:59:09;;;;;;;24.58;10.73;;;14.60;99.90;;;;;;4194913;28;20039;-80
2021/08/14 01:01:10;;;;;;;26.83;10.60;;;14.60;99.90;;;;;;4189215;28;20041;-80
2021/08/14 01:03:11;;;;;;;21.20;9.48;;;14.60;99.90;;;;;;4195981;28;20029;-79
2021/08/14 01:05:11;;;;;;;27.23;12.05;;;14.60;99.90;;;;;;4193986;28;20151;-79
2021/08/14 01:07:12;;;;;;;40.40;12.40;;;14.60;99.90;;;;;;4212256;28;20058;-81
2021/08/14 01:09:12;;;;;;;32.63;10.95;;;14.70;99.90;;;;;;4211932;28;20058;-80
2021/08/14 01:11:14;;;;;;;31.85;11.70;;;14.70;99.90;;;;;;4204629;28;20102;-80
2021/08/14 01:13:15;;;;;;;23.55;11.32;;;14.70;99.90;;;;;;4190699;28;20470;-78
2021/08/14 01:15:16;;;;;;;29.90;10.85;;;14.70;99.90;;;;;;4195171;28;20131;-78
2021/08/14 01:17:18;;;;;;;30.70;12.38;;;14.60;99.90;;;;;;4205646;28;20416;-80
2021/08/14 01:19:19;;;;;;;29.42;12.32;;;14.60;99.90;;;;;;4195342;28;20128;-80
2021/08/14 01:21:24;;;;;;;37.47;11.43;;;14.60;99.90;;;;;;4186366;28;20499;-79
2021/08/14 01:23:25;;;;;;;38.38;12.82;;;14.60;99.90;;;;;;4196457;28;20037;-80
2021/08/14 01:25:26;;;;;;;23.80;11.13;;;14.60;99.90;;;;;;4207260;28;20024;-80
2021/08/14 01:27:27;;;;;;;29.05;11.45;;;14.50;99.90;;;;;;4196061;28;20035;-79
2021/08/14 01:29:27;;;;;;;28.73;12.20;;;14.40;99.90;;;;;;4208136;28;20450;-78
2021/08/14 01:31:28;;;;;;;24.83;12.95;;;14.40;99.90;;;;;;4180181;28;20029;-79
2021/08/14 01:33:37;;;;;;;26.27;12.00;;;14.30;99.90;;;;;;4193218;28;20677;-79
2021/08/14 01:35:42;;;;;;;29.90;11.57;;;14.30;99.90;;;;;;4206828;28;20021;-79
2021/08/14 01:37:42;;;;;;;26.77;12.43;;;14.40;99.90;;;;;;4192990;28;20476;-80
2021/08/14 01:39:43;;;;;;;29.02;13.30;;;14.40;99.90;;;;;;4194087;28;20025;-80
2021/08/14 01:41:58;;;;;;;27.15;12.07;;;14.50;99.90;;;;;;4212358;28;20029;-79
2021/08/14 01:44:07;;;;;;;25.67;13.27;;;14.60;99.90;;;;;;4211431;28;20043;-78
2021/08/14 01:46:08;;;;;;;25.35;11.95;;;14.70;99.90;;;;;;4194656;28;20032;-80
2021/08/14 01:48:09;;;;;;;30.92;11.57;;;14.70;99.90;;;;;;4206134;28;20110;-79
2021/08/14 01:50:10;;;;;;;28.55;12.10;;;14.80;99.90;;;;;;4212544;28;20424;-80
2021/08/14 01:52:15;;;;;;;31.98;12.57;;;14.90;99.90;;;;;;4194142;28;20036;-80
2021/08/14 01:54:17;;;;;;;28.52;13.18;;;15.10;99.90;;;;;;4196050;28;20039;-79
2021/08/14 01:56:18;;;;;;;26.33;11.98;;;15.10;99.90;;;;;;4191817;28;20498;-79
2021/08/14 01:58:19;;;;;;;30.63;11.90;;;15.10;99.90;;;;;;4212960;28;20040;-79
2021/08/14 02:00:20;;;;;;;33.88;12.80;;;15.20;99.90;;;;;;4208778;28;20032;-78
2021/08/14 02:02:20;;;;;;;40.33;12.48;;;15.20;99.90;;;;;;4188949;28;20045;-79
2021/08/14 02:04:21;;;;;;;27.55;11.43;;;15.20;99.90;;;;;;4211165;28;20043;-79
2021/08/14 02:06:23;;;;;;;29.75;11.93;;;15.20;99.90;;;;;;4192473;28;20653;-79
2021/08/14 02:08:24;;;;;;;24.60;11.40;;;15.20;99.90;;;;;;4211751;28;20032;-80
2021/08/14 02:10:24;;;;;;;33.25;12.35;;;15.20;99.90;;;;;;4213348;28;20054;-78
2021/08/14 02:12:25;;;;;;;31.58;12.68;;;15.10;99.90;;;;;;4212027;28;20119;-78
2021/08/14 02:14:26;;;;;;;34.05;11.80;;;15.10;99.90;;;;;;4211847;28;20032;-78
2021/08/14 02:16:29;;;;;;;37.72;13.75;;;15.10;99.90;;;;;;4211578;28;20412;-78
2021/08/14 02:18:29;;;;;;;25.00;12.68;;;15.00;99.90;;;;;;4212730;28;20399;-78
2021/08/14 02:20:30;;;;;;;32.30;12.30;;;14.90;99.90;;;;;;4210850;28;20156;-78
2021/08/14 02:22:30;;;;;;;30.60;13.65;;;14.90;99.90;;;;;;4210529;28;20455;-79
2021/08/14 02:24:31;;;;;;;36.33;14.63;;;14.80;99.90;;;;;;4195292;28;20040;-78
2021/08/14 02:26:32;;;;;;;27.10;12.52;;;14.80;99.90;;;;;;4193801;28;20445;-79
2021/08/14 02:28:33;;;;;;;27.45;13.27;;;14.70;99.90;;;;;;4190908;28;20029;-78
2021/08/14 02:30:34;;;;;;;36.28;14.13;;;14.70;99.90;;;;;;4206066;28;20040;-78
2021/08/14 02:32:35;;;;;;;35.70;13.32;;;14.70;99.90;;;;;;4212112;28;20463;-79
2021/08/14 02:34:35;;;;;;;35.85;14.90;;;14.70;99.90;;;;;;4207101;28;20397;-79
2021/08/14 02:36:36;;;;;;;23.38;11.35;;;14.60;99.90;;;;;;4213158;28;20028;-79
2021/08/14 02:38:37;;;;;;;32.30;13.85;;;14.50;99.90;;;;;;4208397;28;20084;-78
2021/08/14 02:40:38;;;;;;;32.03;13.32;;;14.50;99.90;;;;;;4212219;28;20024;-80
2021/08/14 02:42:45;;;;;;;35.85;15.27;;;14.40;99.90;;;;;;4206758;28;20115;-79
2021/08/14 02:44:45;;;;;;;38.58;13.35;;;14.40;99.90;;;;;;4205743;28;20039;-79
2021/08/14 02:46:46;;;;;;;31.48;13.75;;;14.30;99.90;;;;;;4207327;28;20024;-80
2021/08/14 02:48:46;;;;;;;36.47;14.23;;;14.20;99.90;;;;;;4206132;28;20124;-78
2021/08/14 02:50:47;;;;;;;37.22;13.48;;;14.10;99.90;;;;;;4206771;28;20074;-79
2021/08/14 02:52:48;;;;;;;30.60;14.65;;;14.10;99.90;;;;;;4204427;28;20032;-79
2021/08/14 02:54:48;;;;;;;34.75;14.07;;;14.20;99.90;;;;;;4211112;28;20123;-78
2021/08/14 02:56:49;;;;;;;23.73;12.75;;;14.20;99.90;;;;;;4208028;28;20029;-77
2021/08/14 02:58:50;;;;;;;27.13;14.45;;;14.20;99.90;;;;;;4209903;28;20399;-79
2021/08/14 03:00:50;;;;;;;36.50;13.90;;;14.10;99.90;;;;;;4213187;28;20035;-78
2021/08/14 03:02:51;;;;;;;35.17;14.30;;;14.10;99.90;;;;;;4193574;28;20504;-79
2021/08/14 03:04:52;;;;;;;29.00;13.25;;;14.10;99.90;;;;;;4191413;28;20067;-80
2021/08/14 03:06:56;;;;;;;31.48;13.18;;;14.00;99.90;;;;;;4193158;28;20040;-79
2021/08/14 03:08:57;;;;;;;35.17;15.30;;;14.00;99.90;;;;;;4187451;28;20036;-80
2021/08/14 03:10:58;;;;;;;31.02;14.27;;;14.10;99.90;;;;;;4211791;28;20036;-79
2021/08/14 03:12:58;;;;;;;38.28;16.95;;;14.10;99.90;;;;;;4193960;28;20070;-80
2021/08/14 03:14:59;;;;;;;39.63;15.77;;;14.10;99.90;;;;;;4211679;28;20060;-80
2021/08/14 03:16:59;;;;;;;33.83;15.18;;;14.00;99.90;;;;;;4190394;28;20044;-78
2021/08/14 03:19:00;;;;;;;42.25;16.00;;;14.00;99.90;;;;;;4192711;28;20037;-77
2021/08/14 03:21:01;;;;;;;30.70;12.90;;;14.00;99.90;;;;;;4211779;28;20036;-80
2021/08/14 03:23:02;;;;;;;32.83;14.98;;;14.00;99.90;;;;;;4192663;28;20041;-78
2021/08/14 03:25:04;;;;;;;37.45;16.85;;;13.90;99.90;;;;;;4193897;28;20094;-79
2021/08/14 03:27:06;;;;;;;24.95;14.05;;;13.90;99.90;;;;;;4207553;28;20040;-78
2021/08/14 03:29:06;;;;;;;29.63;15.32;;;14.00;99.90;;;;;;4188234;28;20112;-78
2021/08/14 03:31:07;;;;;;;38.28;14.90;;;14.00;99.90;;;;;;4212488;28;20024;-79
2021/08/14 03:33:08;;;;;;;34.33;14.95;;;14.10;99.90;;;;;;4210659;28;20052;-78
2021/08/14 03:35:09;;;;;;;31.75;14.38;;;14.10;99.90;;;;;;4195443;28;20033;-80
2021/08/14 03:37:10;;;;;;;25.60;14.02;;;14.10;99.90;;;;;;4192397;28;20182;-80
2021/08/14 03:39:10;;;;;;;37.90;14.73;;;14.10;99.90;;;;;;4210116;28;20037;-78
2021/08/14 03:41:11;;;;;;;31.52;13.73;;;14.20;99.90;;;;;;4191728;28;20048;-80
2021/08/14 03:43:12;;;;;;;32.38;13.70;;;14.20;99.90;;;;;;4191864;28;20044;-80
2021/08/14 03:45:13;;;;;;;28.00;13.68;;;14.30;99.90;;;;;;4209962;28;20421;-80
2021/08/14 03:47:13;;;;;;;37.60;14.25;;;14.20;99.90;;;;;;4211720;28;20411;-79
2021/08/14 03:49:15;;;;;;;26.35;12.82;;;14.20;99.90;;;;;;4189835;28;20079;-78
2021/08/14 03:51:15;;;;;;;35.20;13.52;;;14.30;99.90;;;;;;4204113;28;20039;-78
2021/08/14 03:53:16;;;;;;;26.05;13.10;;;14.30;99.90;;;;;;4193037;28;20198;-79
2021/08/14 03:55:16;;;;;;;38.30;13.85;;;14.30;99.90;;;;;;4211468;28;20039;-79
2021/08/14 03:57:17;;;;;;;30.08;13.20;;;14.20;99.90;;;;;;4209059;28;20081;-79
2021/08/14 03:59:18;;;;;;;39.70;14.63;;;14.30;99.90;;;;;;4189693;28;20566;-80
2021/08/14 04:01:18;;;;;;;30.38;13.38;;;14.30;99.90;;;;;;4196319;28;20395;-79
2021/08/14 04:03:19;;;;;;;27.15;13.90;;;14.20;99.90;;;;;;4210206;28;20546;-80
2021/08/14 04:05:20;;;;;;;26.98;12.57;;;14.20;99.90;;;;;;4213573;28;20048;-80
2021/08/14 04:07:20;;;;;;;29.70;12.85;;;14.20;99.90;;;;;;4192746;28;20228;-79
2021/08/14 04:09:21;;;;;;;25.42;11.20;;;14.30;99.90;;;;;;4196882;28;20083;-79
2021/08/14 04:11:21;;;;;;;23.02;11.93;;;14.30;99.90;;;;;;4210384;28;20026;-78
2021/08/14 04:13:22;;;;;;;26.23;12.05;;;14.40;99.90;;;;;;4214071;28;20039;-79
2021/08/14 04:15:23;;;;;;;19.95;11.30;;;14.40;99.90;;;;;;4212840;28;20028;-79
2021/08/14 04:17:23;;;;;;;26.88;12.85;;;14.30;99.90;;;;;;4206647;28;20398;-78
2021/08/14 04:19:24;;;;;;;24.48;10.82;;;14.40;99.90;;;;;;4212641;28;20032;-78
2021/08/14 04:21:24;;;;;;;34.53;12.98;;;14.30;99.90;;;;;;4212643;28;20079;-78
2021/08/14 04:23:25;;;;;;;28.98;13.57;;;14.30;99.90;;;;;;4190058;28;20029;-77
2021/08/14 04:25:26;;;;;;;32.90;14.32;;;14.30;99.90;;;;;;4212860;28;20032;-80
2021/08/14 04:27:26;;;;;;;29.70;12.00;;;14.30;99.90;;;;;;4212956;28;20031;-78
2021/08/14 04:29:28;;;;;;;25.02;12.80;;;14.30;99.90;;;;;;4194856;28;20032;-79
2021/08/14 04:31:29;;;;;;;23.45;13.18;;;14.30;99.90;;;;;;4208847;28;20063;-80
2021/08/14 04:33:30;;;;;;;31.38;12.10;;;14.30;99.90;;;;;;4213206;28;20380;-79
2021/08/14 04:35:30;;;;;;;36.08;14.50;;;14.40;99.90;;;;;;4210484;28;20035;-79
2021/08/14 04:37:31;;;;;;;26.10;11.93;;;14.30;99.90;;;;;;4211775;28;20451;-79
2021/08/14 04:39:32;;;;;;;27.00;13.30;;;14.30;99.90;;;;;;4193894;28;20032;-78
2021/08/14 04:41:32;;;;;;;24.75;11.60;;;14.40;99.90;;;;;;4196691;28;20168;-78
2021/08/14 04:43:33;;;;;;;28.38;12.30;;;14.40;99.90;;;;;;4212262;28;20047;-78
2021/08/14 04:45:33;;;;;;;26.25;11.45;;;14.40;99.90;;;;;;4213907;28;20028;-78
2021/08/14 04:47:34;;;;;;;34.38;13.38;;;14.30;99.90;;;;;;4211548;28;20028;-79
2021/08/14 04:49:35;;;;;;;33.10;12.43;;;14.40;99.90;;;;;;4195854;28;20033;-79
2021/08/14 04:51:36;;;;;;;27.90;12.23;;;14.30;99.90;;;;;;4213311;28;20028;-80
2021/08/14 04:53:37;;;;;;;26.63;11.73;;;14.30;99.90;;;;;;4207569;28;20024;-78
2021/08/14 04:55:37;;;;;;;26.77;11.57;;;14.20;99.90;;;;;;4195340;28;20033;-77
2021/08/14 04:57:38;;;;;;;28.73;12.05;;;14.20;99.90;;;;;;4208756;28;20124;-79
2021/08/14 04:59:38;;;;;;;33.08;13.10;;;14.20;99.90;;;;;;4212900;28;20036;-77
2021/08/14 05:01:39;;;;;;;26.17;11.48;;;14.20;99.90;;;;;;4196156;28;20134;-79
2021/08/14 05:03:40;;;;;;;29.67;12.07;;;14.10;99.90;;;;;;4195716;28;20036;-79
2021/08/14 05:05:42;;;;;;;27.25;12.02;;;14.10;99.90;;;;;;4208740;28;20040;-78
2021/08/14 05:07:42;;;;;;;32.67;14.13;;;14.10;99.90;;;;;;4194852;28;20388;-79
2021/08/14 05:09:43;;;;;;;29.88;12.63;;;14.10;99.90;;;;;;4194047;28;20039;-79
2021/08/14 05:11:44;;;;;;;28.90;13.25;;;14.10;99.90;;;;;;4212486;28;20024;-80
2021/08/14 05:13:44;;;;;;;27.50;12.82;;;14.10;99.90;;;;;;4211105;28;20044;-79
2021/08/14 05:15:45;;;;;;;34.05;12.40;;;14.20;99.90;;;;;;4193404;28;20526;-80
2021/08/14 05:17:46;;;;;;;34.45;13.35;;;14.20;99.90;;;;;;4206416;28;20051;-80
2021/08/14 05:19:46;;;;;;;24.52;12.85;;;14.10;99.90;;;;;;4190909;28;20047;-80
2021/08/14 05:21:47;;;;;;;27.15;12.07;;;14.20;99.90;;;;;;4196032;28;20086;-79
2021/08/14 05:23:48;;;;;;;25.90;11.05;;;14.20;99.90;;;;;;4194647;28;20040;-78
2021/08/14 05:25:49;;;;;;;28.85;12.27;;;14.20;99.90;;;;;;4192290;28;20028;-78
2021/08/14 05:27:50;;;;;;;25.63;11.43;;;14.30;99.90;;;;;;4211932;28;20400;-79
2021/08/14 05:29:50;;;;;;;25.58;12.27;;;14.40;99.90;;;;;;4210292;28;20115;-79
2021/08/14 05:31:51;;;;;;;33.97;12.57;;;14.40;99.90;;;;;;4213203;28;20487;-79
2021/08/14 05:33:51;;;;;;;24.90;12.13;;;14.50;99.90;;;;;;4210477;28;20111;-79
2021/08/14 05:35:52;;;;;;;27.35;12.80;;;14.60;99.90;;;;;;4212575;28;20475;-80
2021/08/14 05:37:53;;;;;;;26.17;12.68;;;14.60;99.90;;;;;;4212230;28;20504;-79
2021/08/14 05:39:54;;;;;;;33.90;13.55;;;14.70;99.90;;;;;;4212782;28;20035;-79
2021/08/14 05:41:54;;;;;;;37.80;12.15;;;14.70;99.90;;;;;;4212862;28;20040;-78
2021/08/14 05:43:55;;;;;;;21.90;11.07;;;14.80;99.90;;;;;;4186925;28;20029;-79
2021/08/14 05:45:56;;;;;;;27.92;11.05;;;14.80;99.90;;;;;;4209977;28;20035;-79
2021/08/14 05:47:56;;;;;;;30.83;13.38;;;14.90;99.90;;;;;;4187052;28;20415;-76
2021/08/14 05:49:57;;;;;;;25.90;12.32;;;14.90;99.90;;;;;;4212954;28;20063;-78
2021/08/14 05:51:59;;;;;;;38.85;13.30;;;15.00;99.90;;;;;;4212481;28;20024;-79
2021/08/14 05:54:00;;;;;;;24.70;11.93;;;15.10;99.90;;;;;;4193679;28;20474;-80
2021/08/14 05:56:00;;;;;;;28.70;12.05;;;15.10;99.90;;;;;;4209217;28;20036;-79
2021/08/14 05:58:01;;;;;;;30.30;12.52;;;15.20;99.90;;;;;;4211348;28;20035;-77
2021/08/14 06:00:02;;;;;;;29.80;12.30;;;15.30;99.90;;;;;;4193350;28;20024;-79
2021/08/14 06:02:03;;;;;;;40.10;15.75;;;15.30;99.90;;;;;;4209734;28;20097;-80
2021/08/14 06:04:04;;;;;;;31.52;13.20;;;15.40;99.90;;;;;;4192439;28;20044;-79
2021/08/14 06:06:05;;;;;;;38.10;13.88;;;15.50;99.90;;;;;;4206295;28;20036;-79
2021/08/14 06:08:05;;;;;;;27.15;11.88;;;15.50;99.90;;;;;;4213485;28;20050;-77
2021/08/14 06:10:08;;;;;;;33.05;13.07;;;15.60;99.90;;;;;;4195630;28;20138;-79
2021/08/14 06:12:10;;;;;;;31.83;13.60;;;15.70;99.90;;;;;;4207098;28;20021;-79
2021/08/14 06:14:11;;;;;;;35.15;14.13;;;15.70;99.90;;;;;;4209511;28;20032;-79
2021/08/14 06:16:14;;;;;;;31.48;11.73;;;15.70;99.90;;;;;;4193366;28;20032;-79
2021/08/14 06:18:15;;;;;;;32.10;12.40;;;15.70;99.90;;;;;;4213126;28;20055;-79
2021/08/14 06:20:16;;;;;;;28.90;12.30;;;15.80;99.90;;;;;;4211424;28;20685;-79
2021/08/14 06:22:17;;;;;;;27.52;11.77;;;15.90;99.90;;;;;;4209755;28;20040;-79
2021/08/14 06:24:17;;;;;;;24.23;11.57;;;15.90;99.90;;;;;;4209131;28;20024;-79
2021/08/14 06:26:18;;;;;;;27.85;11.77;;;15.90;99.90;;;;;;4212520;28;20131;-79
2021/08/14 06:28:18;;;;;;;25.90;11.38;;;16.00;99.90;;;;;;4211362;28;20387;-79
2021/08/14 06:30:19;;;;;;;26.63;12.35;;;16.20;99.90;;;;;;4202777;28;20381;-80
2021/08/14 06:32:20;;;;;;;29.38;13.63;;;16.20;99.90;;;;;;4194591;28;20506;-80
2021/08/14 06:34:20;;;;;;;28.27;12.10;;;16.30;99.90;;;;;;4212086;28;20028;-79
2021/08/14 06:36:21;;;;;;;27.67;11.90;;;16.30;99.90;;;;;;4194091;28;20044;-80
2021/08/14 06:38:22;;;;;;;28.98;11.65;;;16.30;99.90;;;;;;4206434;28;20032;-80
2021/08/14 06:40:23;;;;;;;27.15;11.95;;;16.50;99.90;;;;;;4195136;28;20094;-79
2021/08/14 06:42:24;;;;;;;22.17;12.48;;;16.60;99.90;;;;;;4191196;28;20429;-78
2021/08/14 06:44:25;;;;;;;71.03;47.50;;;16.70;99.90;;;;;;4203537;28;20048;-78
2021/08/14 06:46:25;;;;;;;34.95;18.92;;;16.70;99.90;;;;;;4192523;28;20033;-78
2021/08/14 06:48:26;;;;;;;41.38;23.40;;;16.60;99.90;;;;;;4205455;28;20041;-80
2021/08/14 06:50:27;;;;;;;19.30;11.45;;;16.60;99.90;;;;;;4203719;28;20036;-78
2021/08/14 06:52:27;;;;;;;28.00;12.60;;;16.70;99.90;;;;;;4211871;28;20024;-74
2021/08/14 06:54:28;;;;;;;31.45;12.13;;;16.70;99.90;;;;;;4204990;28;20039;-75
2021/08/14 06:56:29;;;;;;;34.53;12.18;;;16.80;99.90;;;;;;4212441;28;20537;-74
2021/08/14 06:58:29;;;;;;;32.05;12.88;;;16.90;99.90;;;;;;4190357;28;20081;-76
2021/08/14 07:00:30;;;;;;;29.75;10.85;;;17.10;99.90;;;;;;4206286;28;20035;-75
2021/08/14 07:02:30;;;;;;;28.92;13.50;;;17.20;99.90;;;;;;4207209;28;20056;-75
2021/08/14 07:04:31;;;;;;;32.75;12.60;;;17.20;99.90;;;;;;4203888;28;20074;-73
2021/08/14 07:06:32;;;;;;;27.90;11.70;;;17.30;99.90;;;;;;4210250;28;20032;-74
2021/08/14 07:08:33;;;;;;;29.77;12.15;;;17.30;99.90;;;;;;4188356;28;20463;-75
2021/08/14 07:10:33;;;;;;;32.70;12.30;;;17.30;99.90;;;;;;4209317;28;20036;-75
2021/08/14 07:12:34;;;;;;;30.67;12.57;;;17.40;99.90;;;;;;4189047;28;20074;-74
2021/08/14 07:14:34;;;;;;;31.17;13.45;;;17.40;99.90;;;;;;4209451;28;20043;-74
2021/08/14 07:16:35;;;;;;;34.72;14.68;;;17.40;99.90;;;;;;4190063;28;20032;-74
2021/08/14 07:18:35;;;;;;;32.20;13.88;;;17.50;99.90;;;;;;4212593;28;20046;-74
2021/08/14 07:20:36;;;;;;;33.30;13.45;;;17.50;99.90;;;;;;4201984;28;20036;-75
2021/08/14 07:22:37;;;;;;;35.42;13.70;;;17.50;99.90;;;;;;4213711;28;20143;-75
2021/08/14 07:24:37;;;;;;;26.92;13.43;;;17.50;99.90;;;;;;4213380;28;20090;-74
2021/08/14 07:26:39;;;;;;;30.52;14.05;;;17.70;99.90;;;;;;4200183;28;20173;-75
2021/08/14 07:28:39;;;;;;;32.63;13.90;;;17.70;99.90;;;;;;4213483;28;20424;-76
2021/08/14 07:30:40;;;;;;;30.10;14.10;;;17.80;99.90;;;;;;4198219;28;20399;-75
2021/08/14 07:32:40;;;;;;;30.85;17.05;;;17.80;99.90;;;;;;4201647;28;21537;-75
2021/08/14 07:34:41;;;;;;;32.35;17.42;;;17.90;99.90;;;;;;4204241;28;20036;-75
2021/08/14 07:36:41;;;;;;;35.92;16.30;;;18.00;99.90;;;;;;4216926;28;20399;-75
2021/08/14 07:38:42;;;;;;;33.03;18.33;;;17.90;99.90;;;;;;4204793;28;20036;-74
2021/08/14 07:40:43;;;;;;;33.13;18.10;;;17.90;99.90;;;;;;4215384;28;20118;-75
2021/08/14 07:42:44;;;;;;;30.63;18.08;;;18.00;99.90;;;;;;4217917;28;20043;-75
2021/08/14 07:44:44;;;;;;;34.85;21.08;;;18.10;99.90;;;;;;4215343;28;20069;-76
2021/08/14 07:46:45;;;;;;;34.78;19.95;;;18.20;99.90;;;;;;4211291;28;20097;-77
2021/08/14 07:48:46;;;;;;;36.20;20.50;;;;;;;;;;4213083;28;20036;-75
2021/08/14 07:50:46;;;;;;;41.95;23.10;;;18.50;99.90;;;;;;4209328;28;20127;-75
2021/08/14 07:52:49;;;;;;;34.55;23.83;;;18.60;99.90;;;;;;4211500;28;20040;-74
2021/08/14 07:54:49;;;;;;;44.80;24.15;;;18.60;99.90;;;;;;4192097;28;20052;-74
2021/08/14 07:56:50;;;;;;;35.10;23.20;;;18.60;99.90;;;;;;4212083;28;20036;-74
2021/08/14 07:58:50;;;;;;;36.72;22.48;;;18.70;99.90;;;;;;4195155;28;20060;-74
2021/08/14 08:00:51;;;;;;;35.55;23.60;;;18.80;99.90;;;;;;4212920;28;20059;-74
2021/08/14 08:02:52;;;;;;;41.97;24.25;;;19.00;99.90;;;;;;4196350;28;20044;-75
2021/08/14 08:04:53;;;;;;;36.85;23.58;;;19.20;99.90;;;;;;4212668;28;20210;-74
2021/08/14 08:06:53;;;;;;;38.60;25.65;;;19.10;99.90;;;;;;4206631;28;20047;-75
2021/08/14 08:08:54;;;;;;;40.35;25.48;;;19.20;99.90;;;;;;4212360;28;20085;-74
2021/08/14 08:10:54;;;;;;;45.20;27.85;;;19.20;99.90;;;;;;4207886;28;20057;-75
2021/08/14 08:12:55;;;;;;;38.63;24.73;;;19.00;99.90;;;;;;4215127;28;20403;-75
2021/08/14 08:14:56;;;;;;;40.88;24.33;;;19.10;99.90;;;;;;4213016;28;20027;-75
2021/08/14 08:16:56;;;;;;;41.40;25.15;;;19.10;99.90;;;;;;4196089;28;20439;-73
2021/08/14 08:18:59;;;;;;;44.42;25.38;;;19.20;99.90;;;;;;4213803;28;20032;-74
2021/08/14 08:21:00;;;;;;;41.88;24.70;;;19.20;99.90;;;;;;4189402;28;20041;-75
2021/08/14 08:23:01;;;;;;;36.30;24.08;;;19.10;99.90;;;;;;4196442;28;20111;-75
2021/08/14 08:25:02;;;;;;;39.38;25.70;;;19.10;99.90;;;;;;4212588;28;20079;-76
2021/08/14 08:27:03;;;;;;;34.65;23.90;;;18.90;99.90;;;;;;4195089;28;20478;-75
2021/08/14 08:29:03;;;;;;;39.42;23.83;;;18.80;99.90;;;;;;4213922;28;20036;-74
2021/08/14 08:31:04;;;;;;;41.00;24.27;;;18.90;99.90;;;;;;4211928;28;20028;-74
2021/08/14 08:33:05;;;;;;;45.33;23.73;;;18.80;99.90;;;;;;4190545;28;20036;-74
2021/08/14 08:35:07;;;;;;;38.60;25.00;;;18.80;99.90;;;;;;4211059;28;20036;-75
2021/08/14 08:37:07;;;;;;;38.40;22.38;;;19.10;99.90;;;;;;4210648;28;20170;-77
2021/08/14 08:39:08;;;;;;;34.70;21.50;;;19.30;99.90;;;;;;4209508;28;20057;-74
2021/08/14 08:41:09;;;;;;;41.38;24.15;;;19.50;99.90;;;;;;4210325;28;20120;-74
2021/08/14 08:43:10;;;;;;;38.45;21.58;;;19.70;99.90;;;;;;4193490;28;20408;-74
2021/08/14 08:45:10;;;;;;;36.55;20.70;;;19.80;99.90;;;;;;4193144;28;20090;-74
2021/08/14 08:47:14;;;;;;;35.22;19.25;;;19.70;99.90;;;;;;4194843;28;20543;-74
2021/08/14 08:49:17;;;;;;;31.52;21.63;;;19.60;99.90;;;;;;4194567;28;20037;-74
2021/08/14 08:51:25;;;;;;;34.53;21.40;;;19.40;99.90;;;;;;4193279;28;20025;-74
2021/08/14 08:53:25;;;;;;;30.60;21.00;;;19.10;99.90;;;;;;4195813;28;20029;-75
2021/08/14 08:55:26;;;;;;;33.08;21.52;;;18.80;99.90;;;;;;4195727;28;20565;-75
2021/08/14 08:57:26;;;;;;;37.60;21.23;;;18.80;99.90;;;;;;4196286;28;20032;-75
2021/08/14 08:59:27;;;;;;;35.47;22.25;;;18.70;99.90;;;;;;4195403;28;20040;-74
2021/08/14 09:01:28;;;;;;;33.78;21.58;;;18.70;99.90;;;;;;4196990;28;20643;-76
2021/08/14 09:03:30;;;;;;;36.47;21.70;;;18.70;99.90;;;;;;4190371;28;20463;-76
2021/08/14 09:05:31;;;;;;;32.38;19.08;;;18.60;99.90;;;;;;4195377;28;20470;-74
2021/08/14 09:07:32;;;;;;;32.05;20.70;;;18.70;99.90;;;;;;4194728;28;20033;-74
2021/08/14 09:09:33;;;;;;;27.17;19.48;;;18.70;99.90;;;;;;4190088;28;20032;-74
2021/08/14 09:11:34;;;;;;;34.92;22.33;;;18.60;99.90;;;;;;4193361;28;20040;-75
2021/08/14 09:13:35;;;;;;;33.70;19.77;;;18.50;99.90;;;;;;4190698;28;20032;-75
2021/08/14 09:15:35;;;;;;;30.77;20.50;;;18.50;99.90;;;;;;4196922;28;20079;-74
2021/08/14 09:17:36;;;;;;;40.78;20.80;;;18.70;99.90;;;;;;4191530;28;20099;-75
2021/08/14 09:19:37;;;;;;;32.78;21.00;;;18.80;99.90;;;;;;4197927;28;20026;-74
2021/08/14 09:21:39;;;;;;;34.20;20.55;;;18.80;99.90;;;;;;4191569;28;20029;-75
2021/08/14 09:23:41;;;;;;;36.35;20.27;;;18.80;99.90;;;;;;4192620;28;20025;-74
2021/08/14 09:25:51;;;;;;;31.27;19.08;;;18.80;99.90;;;;;;4191440;28;20033;-76
2021/08/14 09:28:00;;;;;;;28.90;18.55;;;18.90;99.90;;;;;;4194188;28;20040;-75
2021/08/14 09:30:00;;;;;;;31.05;19.50;;;19.00;99.90;;;;;;4191267;28;20422;-76
2021/08/14 09:32:05;;;;;;;37.85;21.10;;;18.90;99.90;;;;;;4192242;28;20032;-76
2021/08/14 09:34:20;;;;;;;39.63;22.35;;;19.00;99.90;;;;;;4190339;28;20365;-76
2021/08/14 09:36:21;;;;;;;34.72;22.10;;;19.10;99.90;;;;;;4190711;28;20329;-75
2021/08/14 09:38:22;;;;;;;36.83;23.20;;;18.90;99.90;;;;;;4196450;28;20036;-74
2021/08/14 09:40:33;;;;;;;35.30;21.77;;;18.70;99.90;;;;;;4192927;28;20655;-75
2021/08/14 09:42:49;;;;;;;35.95;21.42;;;18.60;99.90;;;;;;4203407;28;20051;-75
2021/08/14 09:45:22;;;;;;;46.42;23.17;;;18.70;99.90;;;;;;4207550;28;20040;-74
2021/08/14 09:47:33;;;;;;;41.43;22.17;;;18.80;99.90;;;;;;4172353;28;20029;-75
2021/08/14 09:49:51;;;;;;;44.47;22.92;;;18.80;99.90;;;;;;4212031;28;20281;-76
2021/08/14 09:51:51;;;;;;;44.75;23.27;;;19.00;99.90;;;;;;4185539;28;20033;-74
2021/08/14 09:53:53;;;;;;;42.42;21.98;;;19.00;99.90;;;;;;4194814;28;20541;-75
2021/08/14 09:56:03;;;;;;;40.28;23.27;;;19.10;99.90;;;;;;4203498;28;20040;-75
2021/08/14 09:58:06;;;;;;;42.65;25.45;;;19.10;99.90;;;;;;4207210;28;20413;-75
2021/08/14 10:00:08;;;;;;;42.58;24.02;;;19.00;99.90;;;;;;4187735;28;20082;-75
2021/08/14 10:02:14;;;;;;;44.50;25.83;;;18.90;99.90;;;;;;4210226;28;20425;-74
2021/08/14 10:04:17;;;;;;;39.58;22.85;;;19.00;99.90;;;;;;4206055;28;20025;-74
2021/08/14 10:06:19;;;;;;;43.97;24.42;;;19.20;99.90;;;;;;4207683;28;20028;-75
2021/08/14 10:08:20;;;;;;;44.80;23.27;;;19.30;99.90;;;;;;4190168;28;20032;-75
2021/08/14 10:10:22;;;;;;;45.53;24.70;;;19.30;99.90;;;;;;4212902;28;20047;-74
2021/08/14 10:12:22;;;;;;;51.08;27.60;;;19.20;99.90;;;;;;4210220;28;20048;-74
2021/08/14 10:14:24;;;;;;;59.10;29.35;;;19.10;99.90;;;;;;4212726;28;20028;-75
2021/08/14 10:16:25;;;;;;;46.15;26.67;;;18.80;99.90;;;;;;4210037;28;20024;-74